Time;durP1;ratioP1;P1;durP2;ratioP2;P2;SDS_P1;SDS_P2;PMS_P1;PMS_P2;Temp;Humidity;BMP_temperature;BMP_pressure;BME280_temperature;BME280_humidity;BME280_pressure;Samples;Min_cycle;Max_cycle;Signal;HPM_P1;HPM_P2
2021/05/16 00:02:22;;;;;;;12.47;2.93;;;11.60;84.90;;;;;;4996622;28;20389;-86
2021/05/16 00:04:47;;;;;;;15.57;3.67;;;11.60;85.30;;;;;;4990606;28;20050;-86
2021/05/16 00:07:13;;;;;;;15.03;3.10;;;11.60;84.70;;;;;;4976741;28;20030;-87
2021/05/16 00:09:40;;;;;;;15.47;3.20;;;11.60;84.80;;;;;;4989392;28;20036;-84
2021/05/16 00:12:07;;;;;;;10.77;2.33;;;11.60;84.70;;;;;;4978257;28;20461;-85
2021/05/16 00:14:33;;;;;;;15.80;3.20;;;11.50;84.60;;;;;;5010049;28;20397;-86
2021/05/16 00:16:59;;;;;;;15.63;3.23;;;11.50;84.80;;;;;;5010801;28;20053;-83
2021/05/16 00:19:25;;;;;;;13.50;2.60;;;11.50;84.70;;;;;;5008210;28;20517;-85
2021/05/16 00:21:51;;;;;;;14.33;2.97;;;11.50;84.60;;;;;;5008482;28;20422;-82
2021/05/16 00:24:17;;;;;;;10.17;2.27;;;11.50;84.70;;;;;;5009232;28;20657;-85
2021/05/16 00:26:43;;;;;;;15.27;3.43;;;11.40;84.60;;;;;;4993265;28;20030;-84
2021/05/16 00:29:08;;;;;;;14.80;3.13;;;11.30;84.60;;;;;;5009856;28;20032;-84
2021/05/16 00:31:34;;;;;;;16.00;2.90;;;11.30;85.00;;;;;;5009148;28;20029;-85
2021/05/16 00:34:00;;;;;;;14.20;2.60;;;11.30;85.30;;;;;;5007641;28;20169;-85
2021/05/16 00:36:26;;;;;;;18.77;3.33;;;11.30;85.20;;;;;;5010158;28;20113;-85
2021/05/16 00:38:52;;;;;;;16.93;3.27;;;11.30;85.10;;;;;;4993315;28;20034;-84
2021/05/16 00:41:18;;;;;;;12.83;2.83;;;11.30;85.10;;;;;;5009210;28;20088;-84
2021/05/16 00:43:44;;;;;;;13.50;2.60;;;11.40;85.00;;;;;;5010215;28;20133;-83
2021/05/16 00:46:09;;;;;;;12.53;3.00;;;11.50;85.20;;;;;;4989200;28;20134;-84
2021/05/16 00:48:36;;;;;;;14.43;2.67;;;11.50;84.60;;;;;;4993166;28;20072;-83
2021/05/16 00:51:02;;;;;;;12.57;3.33;;;11.60;84.50;;;;;;4991788;28;20034;-85
2021/05/16 00:53:28;;;;;;;16.70;3.10;;;11.60;84.60;;;;;;5008752;28;20037;-84
2021/05/16 00:55:55;;;;;;;12.00;2.93;;;11.60;84.50;;;;;;4994248;28;20128;-83
2021/05/16 00:58:22;;;;;;;12.20;2.43;;;11.60;84.50;;;;;;4995508;28;20383;-83
2021/05/16 01:00:48;;;;;;;13.20;3.03;;;11.60;84.20;;;;;;5014891;28;20026;-83
2021/05/16 01:03:14;;;;;;;12.17;3.20;;;11.60;84.10;;;;;;4998448;28;20066;-84
2021/05/16 01:05:42;;;;;;;15.33;3.50;;;11.50;84.20;;;;;;5013840;28;20026;-84
2021/05/16 01:08:08;;;;;;;20.07;2.80;;;11.60;84.30;;;;;;5015650;28;20032;-84
2021/05/16 01:10:34;;;;;;;15.37;2.73;;;11.60;84.10;;;;;;5001510;28;20029;-84
2021/05/16 01:13:00;;;;;;;10.17;2.13;;;11.60;84.10;;;;;;5016741;28;20034;-85
2021/05/16 01:15:27;;;;;;;13.10;2.77;;;11.70;84.20;;;;;;5016105;28;20463;-82
2021/05/16 01:17:53;;;;;;;14.17;2.43;;;11.70;84.10;;;;;;5016935;28;20045;-84
2021/05/16 01:20:24;;;;;;;17.50;2.50;;;11.70;83.80;;;;;;4997074;28;20030;-82
2021/05/16 01:23:08;;;;;;;16.23;2.70;;;11.70;83.90;;;;;;5014523;28;20567;-84
2021/05/16 01:25:40;;;;;;;20.07;2.93;;;11.80;83.80;;;;;;5017415;28;20038;-83
2021/05/16 01:28:08;;;;;;;17.25;2.40;;;11.70;83.60;;;;;;5001180;28;20097;-83
2021/05/16 01:30:34;;;;;;;18.70;2.70;;;11.70;83.50;;;;;;5015699;28;20048;-82
2021/05/16 01:33:03;;;;;;;15.20;2.57;;;11.70;83.30;;;;;;5018774;28;20061;-84
2021/05/16 01:35:29;;;;;;;15.33;2.17;;;11.60;83.40;;;;;;5016883;28;20034;-83
2021/05/16 01:37:55;;;;;;;11.70;2.40;;;11.60;83.10;;;;;;5000638;28;20033;-83
2021/05/16 01:40:22;;;;;;;16.33;2.97;;;11.50;83.20;;;;;;5018583;28;20117;-84
2021/05/16 01:42:51;;;;;;;13.77;1.97;;;11.50;82.90;;;;;;5013978;28;20170;-83
2021/05/16 01:45:25;;;;;;;16.73;2.33;;;11.50;83.20;;;;;;4994163;28;20428;-83
2021/05/16 01:47:52;;;;;;;16.27;2.73;;;11.50;83.30;;;;;;5010924;28;20041;-82
2021/05/16 01:50:20;;;;;;;13.37;2.20;;;11.40;83.20;;;;;;4989788;28;20379;-83
2021/05/16 01:52:47;;;;;;;16.13;2.30;;;11.40;83.40;;;;;;5014308;28;20073;-84
2021/05/16 01:55:15;;;;;;;16.63;2.40;;;11.30;83.20;;;;;;4998462;28;20027;-80
2021/05/16 01:57:41;;;;;;;15.60;2.67;;;11.30;83.00;;;;;;5010164;28;20037;-83
2021/05/16 02:00:11;;;;;;;12.20;1.70;;;11.10;83.20;;;;;;5012831;28;20033;-84
2021/05/16 02:02:38;;;;;;;15.30;1.93;;;11.00;83.60;;;;;;5013340;28;20042;-82
2021/05/16 02:05:05;;;;;;;15.33;2.20;;;10.90;83.60;;;;;;4994015;28;20483;-84
2021/05/16 02:07:31;;;;;;;15.43;2.03;;;10.90;83.70;;;;;;4997127;28;20034;-84
2021/05/16 02:09:57;;;;;;;13.93;2.03;;;10.90;84.00;;;;;;4997341;28;20038;-82
2021/05/16 02:12:23;;;;;;;18.60;2.67;;;10.80;83.90;;;;;;5013997;28;20026;-84
2021/05/16 02:14:49;;;;;;;21.37;2.77;;;10.80;83.80;;;;;;4999292;28;20042;-84
2021/05/16 02:17:16;;;;;;;12.17;2.00;;;10.70;84.10;;;;;;5013768;28;20052;-83
2021/05/16 02:19:42;;;;;;;13.13;1.57;;;10.70;84.30;;;;;;5012482;28;20033;-84
2021/05/16 02:22:08;;;;;;;10.10;1.73;;;10.70;84.50;;;;;;4978570;28;20026;-84
2021/05/16 02:24:33;;;;;;;13.83;2.30;;;10.70;84.50;;;;;;4995797;28;20091;-83
2021/05/16 02:27:00;;;;;;;13.50;1.90;;;10.60;84.50;;;;;;4998482;28;20030;-84
2021/05/16 02:29:28;;;;;;;11.50;2.23;;;10.60;84.70;;;;;;5009820;28;20891;-84
2021/05/16 02:31:54;;;;;;;17.27;2.23;;;10.60;85.00;;;;;;5008648;28;20033;-84
2021/05/16 02:34:20;;;;;;;11.60;2.27;;;10.50;85.20;;;;;;5013271;28;20066;-84
2021/05/16 02:36:46;;;;;;;15.23;2.33;;;10.40;85.20;;;;;;5012067;28;20070;-84
2021/05/16 02:39:12;;;;;;;11.47;2.30;;;10.40;85.30;;;;;;4995274;28;20061;-83
2021/05/16 02:41:37;;;;;;;10.73;2.03;;;10.40;85.40;;;;;;4992191;28;20028;-83
2021/05/16 02:44:04;;;;;;;13.13;2.00;;;10.40;85.70;;;;;;4988822;28;20550;-84
2021/05/16 02:46:29;;;;;;;15.17;2.33;;;10.30;85.60;;;;;;4992111;28;20510;-84
2021/05/16 02:48:55;;;;;;;11.37;1.57;;;10.20;85.70;;;;;;4995637;28;20041;-84
2021/05/16 02:51:21;;;;;;;11.73;1.67;;;10.20;86.00;;;;;;5011119;28;20038;-84
2021/05/16 02:53:47;;;;;;;15.17;1.80;;;10.20;86.20;;;;;;5010695;28;20406;-83
2021/05/16 02:56:14;;;;;;;13.23;1.90;;;10.10;86.20;;;;;;5012612;28;20034;-84
2021/05/16 02:58:41;;;;;;;11.27;2.03;;;10.00;86.30;;;;;;5011231;28;20030;-84
2021/05/16 03:01:07;;;;;;;22.20;2.37;;;10.00;86.20;;;;;;4995422;28;20483;-84
2021/05/16 03:03:33;;;;;;;16.10;1.80;;;10.00;86.30;;;;;;5004690;28;20310;-82
2021/05/16 03:06:00;;;;;;;11.10;1.57;;;9.90;86.40;;;;;;5013586;28;20121;-83
2021/05/16 03:08:25;;;;;;;14.40;2.00;;;9.90;86.70;;;;;;5001083;28;20023;-83
2021/05/16 03:10:51;;;;;;;14.63;1.87;;;9.90;86.90;;;;;;5011304;28;20389;-83
2021/05/16 03:13:17;;;;;;;10.97;2.03;;;9.90;87.20;;;;;;5013885;28;20038;-83
2021/05/16 03:15:42;;;;;;;13.07;1.73;;;9.80;87.10;;;;;;4995360;28;20026;-84
2021/05/16 03:18:08;;;;;;;13.33;1.80;;;9.90;87.30;;;;;;4995453;28;20038;-83
2021/05/16 03:20:34;;;;;;;10.73;1.83;;;9.90;87.40;;;;;;5010891;28;20073;-83
2021/05/16 03:22:59;;;;;;;8.13;1.47;;;9.90;87.60;;;;;;4994978;28;20076;-83
2021/05/16 03:25:25;;;;;;;9.57;1.57;;;10.00;87.70;;;;;;5010915;28;20513;-83
2021/05/16 03:27:51;;;;;;;9.37;1.50;;;10.20;87.70;;;;;;5009445;28;20038;-83
2021/05/16 03:30:16;;;;;;;7.43;1.30;;;10.30;87.50;;;;;;5008873;28;20041;-81
2021/05/16 03:32:42;;;;;;;9.50;1.60;;;10.30;87.20;;;;;;5009946;28;20116;-84
2021/05/16 03:35:10;;;;;;;15.40;1.43;;;10.40;87.10;;;;;;4991593;28;20026;-82
2021/05/16 03:37:36;;;;;;;11.53;1.90;;;10.40;86.80;;;;;;4993689;28;20102;-81
2021/05/16 03:40:04;;;;;;;10.27;1.50;;;10.50;86.60;;;;;;5012397;28;20044;-80
2021/05/16 03:42:29;;;;;;;12.97;1.30;;;10.50;86.50;;;;;;5010360;28;20234;-80
2021/05/16 03:44:55;;;;;;;13.90;1.57;;;10.60;86.40;;;;;;4977195;28;20657;-81
2021/05/16 03:47:22;;;;;;;13.87;1.70;;;10.70;86.20;;;;;;4993656;28;20071;-82
2021/05/16 03:49:47;;;;;;;9.53;1.40;;;10.70;86.00;;;;;;4991130;28;20037;-81
2021/05/16 03:52:13;;;;;;;11.17;1.97;;;10.80;85.70;;;;;;5007159;28;20042;-81
2021/05/16 03:54:40;;;;;;;13.50;1.70;;;10.70;85.50;;;;;;5008530;28;20034;-80
2021/05/16 03:57:07;;;;;;;11.53;1.87;;;10.80;85.50;;;;;;4994676;28;20033;-80
2021/05/16 03:59:33;;;;;;;11.97;1.33;;;10.80;85.60;;;;;;4976573;28;20054;-80
2021/05/16 04:01:59;;;;;;;10.43;1.60;;;10.90;85.50;;;;;;4990705;28;20089;-80
2021/05/16 04:04:24;;;;;;;11.63;1.47;;;10.90;85.40;;;;;;4990978;28;20041;-80
2021/05/16 04:06:50;;;;;;;7.23;1.30;;;10.90;85.10;;;;;;5009405;28;20037;-80
2021/05/16 04:09:16;;;;;;;10.17;1.60;;;11.00;85.20;;;;;;5010103;28;20025;-79
2021/05/16 04:11:41;;;;;;;9.40;1.63;;;11.00;85.10;;;;;;5016542;28;20028;-80
2021/05/16 04:14:07;;;;;;;8.43;1.50;;;11.00;84.90;;;;;;5000990;28;20035;-81
2021/05/16 04:16:32;;;;;;;11.73;1.60;;;11.00;84.80;;;;;;5005198;28;20026;-80
2021/05/16 04:18:58;;;;;;;15.83;1.80;;;11.00;84.80;;;;;;5020434;28;20060;-79
2021/05/16 04:21:24;;;;;;;14.87;2.47;;;11.10;84.70;;;;;;5003877;28;20473;-81
2021/05/16 04:23:49;;;;;;;9.80;1.60;;;11.20;84.40;;;;;;5002468;28;20555;-80
2021/05/16 04:26:15;;;;;;;10.67;1.87;;;11.30;84.20;;;;;;5020404;28;20044;-80
2021/05/16 04:28:41;;;;;;;9.77;1.90;;;11.20;84.20;;;;;;5015926;28;20046;-79
2021/05/16 04:31:06;;;;;;;7.17;1.40;;;11.30;84.20;;;;;;5001641;28;20052;-80
2021/05/16 04:33:32;;;;;;;9.40;1.87;;;11.30;84.20;;;;;;4998130;28;20501;-79
2021/05/16 04:35:58;;;;;;;7.60;1.53;;;11.30;84.00;;;;;;5009099;28;20387;-80
2021/05/16 04:38:24;;;;;;;11.20;1.90;;;11.40;84.10;;;;;;5008638;28;20058;-81
2021/05/16 04:40:50;;;;;;;11.80;1.73;;;11.50;84.00;;;;;;5009499;28;20453;-79
2021/05/16 04:43:16;;;;;;;8.97;1.70;;;11.70;83.60;;;;;;5009010;28;20169;-80
2021/05/16 04:45:41;;;;;;;8.73;1.37;;;11.80;83.20;;;;;;5009843;28;20034;-80
2021/05/16 04:48:07;;;;;;;11.40;2.03;;;12.10;82.90;;;;;;5008061;28;20042;-80
2021/05/16 04:50:34;;;;;;;10.43;1.70;;;12.20;82.30;;;;;;5010065;28;20044;-79
2021/05/16 04:53:00;;;;;;;10.53;1.87;;;12.30;82.00;;;;;;5008882;28;20375;-79
2021/05/16 04:55:26;;;;;;;11.00;1.50;;;12.30;81.70;;;;;;5007924;28;20041;-80
2021/05/16 04:57:51;;;;;;;6.70;1.30;;;12.30;81.70;;;;;;5007872;28;20038;-80
2021/05/16 05:00:18;;;;;;;6.20;1.50;;;12.30;81.70;;;;;;4993174;28;20029;-80
2021/05/16 05:02:46;;;;;;;8.27;1.50;;;12.60;81.30;;;;;;4990172;28;20113;-80
2021/05/16 05:05:13;;;;;;;6.53;2.23;;;12.70;80.40;;;;;;5007054;28;20224;-79
2021/05/16 05:07:39;;;;;;;9.10;1.63;;;12.90;80.00;;;;;;4988404;28;20033;-80
2021/05/16 05:10:06;;;;;;;10.70;1.70;;;12.80;79.90;;;;;;4989348;28;20465;-81
2021/05/16 05:12:32;;;;;;;14.07;1.90;;;12.80;80.20;;;;;;4990855;28;20023;-81
2021/05/16 05:14:57;;;;;;;7.50;1.43;;;12.70;80.10;;;;;;4989098;28;20042;-80
2021/05/16 05:17:23;;;;;;;8.33;1.33;;;12.70;80.30;;;;;;4989770;28;20125;-80
2021/05/16 05:19:48;;;;;;;11.80;1.70;;;12.80;80.20;;;;;;4989100;28;20509;-79
2021/05/16 05:22:14;;;;;;;8.97;1.63;;;12.90;79.80;;;;;;4973756;28;20459;-80
2021/05/16 05:24:40;;;;;;;10.88;1.85;;;12.80;79.90;;;;;;5002406;28;20193;-80
2021/05/16 05:27:06;;;;;;;10.23;2.20;;;12.80;80.00;;;;;;5007925;28;20072;-80
2021/05/16 05:29:31;;;;;;;8.63;2.25;;;12.70;80.10;;;;;;5012312;28;20478;-82
2021/05/16 05:31:57;;;;;;;8.93;2.47;;;12.70;80.20;;;;;;5011229;28;20117;-79
2021/05/16 05:34:25;;;;;;;13.13;3.30;;;12.70;80.20;;;;;;5007470;28;20030;-80
2021/05/16 05:36:52;;;;;;;13.73;3.97;;;12.70;80.50;;;;;;5011524;28;20037;-78
2021/05/16 05:39:18;;;;;;;12.13;4.10;;;12.70;80.40;;;;;;4997056;28;20068;-79
2021/05/16 05:41:45;;;;;;;12.87;4.40;;;12.80;80.20;;;;;;5008960;28;20027;-78
2021/05/16 05:44:11;;;;;;;11.30;3.50;;;12.80;80.00;;;;;;4992246;28;20486;-78
2021/05/16 05:46:37;;;;;;;13.27;5.32;;;12.70;79.80;;;;;;4984195;28;20434;-81
2021/05/16 05:49:03;;;;;;;18.50;6.80;;;12.70;80.00;;;;;;5010765;28;20038;-78
2021/05/16 05:51:29;;;;;;;15.80;7.63;;;12.70;80.20;;;;;;5011942;28;20029;-80
2021/05/16 05:53:55;;;;;;;17.13;6.23;;;12.90;80.20;;;;;;5010807;28;20060;-77
2021/05/16 05:56:20;;;;;;;17.95;5.38;;;13.10;79.90;;;;;;5012338;28;20065;-79
2021/05/16 05:58:46;;;;;;;16.63;5.47;;;13.30;79.10;;;;;;4994511;28;20065;-78
2021/05/16 06:01:12;;;;;;;15.63;4.20;;;13.60;78.30;;;;;;5011064;28;20022;-79
2021/05/16 06:03:37;;;;;;;22.10;9.85;;;14.00;77.20;;;;;;4999944;28;20046;-79
2021/05/16 06:06:03;;;;;;;15.77;4.57;;;14.30;76.50;;;;;;4994884;28;20062;-76
2021/05/16 06:08:29;;;;;;;16.95;5.22;;;14.30;75.50;;;;;;5000288;28;20030;-77
2021/05/16 06:10:56;;;;;;;19.15;8.77;;;14.30;75.80;;;;;;5008270;28;20494;-78
2021/05/16 06:13:22;;;;;;;17.77;6.70;;;14.20;76.10;;;;;;5007258;28;20030;-78
2021/05/16 06:15:48;;;;;;;14.95;7.10;;;14.70;76.10;;;;;;4991536;28;20038;-77
2021/05/16 06:18:14;;;;;;;23.60;9.00;;;15.20;74.20;;;;;;5002289;28;20084;-77
2021/05/16 06:20:40;;;;;;;26.60;13.38;;;15.20;73.50;;;;;;5011906;28;20038;-81
2021/05/16 06:23:08;;;;;;;18.48;6.82;;;15.20;73.40;;;;;;5011417;28;20025;-77
2021/05/16 06:25:34;;;;;;;23.80;10.27;;;15.30;73.30;;;;;;4992367;28;20066;-77
2021/05/16 06:27:59;;;;;;;23.25;11.48;;;15.10;73.40;;;;;;4993937;28;21032;-78
2021/05/16 06:30:25;;;;;;;24.75;13.32;;;15.10;74.10;;;;;;5009031;28;20394;-77
2021/05/16 06:32:51;;;;;;;25.35;9.90;;;15.20;73.40;;;;;;5010696;28;20406;-76
2021/05/16 06:35:18;;;;;;;22.67;10.75;;;15.20;73.30;;;;;;5011697;28;20113;-77
2021/05/16 06:37:45;;;;;;;34.08;14.57;;;15.30;73.40;;;;;;4994712;28;20041;-80
2021/05/16 06:40:11;;;;;;;31.52;11.43;;;15.40;72.80;;;;;;5010950;28;20030;-77
2021/05/16 06:42:37;;;;;;;26.20;11.15;;;15.40;72.40;;;;;;5007459;28;20094;-77
2021/05/16 06:45:04;;;;;;;33.97;16.05;;;15.40;72.40;;;;;;5012279;28;20049;-78
2021/05/16 06:47:29;;;;;;;31.63;15.23;;;15.30;72.90;;;;;;5010555;28;20075;-79
2021/05/16 06:49:55;;;;;;;40.13;19.80;;;15.40;73.00;;;;;;4992340;28;20034;-76
2021/05/16 06:52:21;;;;;;;25.67;12.70;;;15.50;73.10;;;;;;4989720;28;20034;-78
2021/05/16 06:54:48;;;;;;;19.27;8.48;;;15.60;72.70;;;;;;5010066;28;20041;-80
2021/05/16 06:57:14;;;;;;;21.55;9.18;;;15.50;72.20;;;;;;4994044;28;20034;-76
2021/05/16 06:59:40;;;;;;;22.20;10.20;;;15.40;72.50;;;;;;5011636;28;20030;-78
2021/05/16 07:02:06;;;;;;;21.40;6.88;;;15.40;72.50;;;;;;5008631;28;20049;-78
2021/05/16 07:04:32;;;;;;;25.92;12.88;;;15.40;72.20;;;;;;5011496;28;20497;-80
2021/05/16 07:06:58;;;;;;;26.33;11.35;;;15.30;72.70;;;;;;4973983;28;20080;-78
2021/05/16 07:09:24;;;;;;;23.65;10.25;;;15.30;73.10;;;;;;5005960;28;20496;-77
2021/05/16 07:11:49;;;;;;;20.17;8.32;;;15.20;73.00;;;;;;5010247;28;20088;-79
2021/05/16 07:14:15;;;;;;;23.70;11.25;;;15.30;72.80;;;;;;4987409;28;20379;-77
2021/05/16 07:16:40;;;;;;;20.67;9.88;;;15.40;72.70;;;;;;5010839;28;20124;-78
2021/05/16 07:19:06;;;;;;;20.17;9.02;;;15.40;72.30;;;;;;4992815;28;20839;-80
2021/05/16 07:21:32;;;;;;;19.27;6.95;;;15.50;72.70;;;;;;4994307;28;20026;-78
2021/05/16 07:23:58;;;;;;;16.52;6.78;;;15.60;72.40;;;;;;5009382;28;20068;-81
2021/05/16 07:26:23;;;;;;;21.67;10.13;;;15.90;72.10;;;;;;4994081;28;20034;-79
2021/05/16 07:28:50;;;;;;;14.25;6.25;;;16.60;71.30;;;;;;4990311;28;20049;-81
2021/05/16 07:31:16;;;;;;;21.00;9.23;;;17.10;69.40;;;;;;5008988;28;20030;-79
2021/05/16 07:33:42;;;;;;;18.02;6.80;;;17.40;68.60;;;;;;5010212;28;20080;-79
2021/05/16 07:36:08;;;;;;;15.63;5.35;;;17.90;67.00;;;;;;4994211;28;20065;-78
2021/05/16 07:38:34;;;;;;;16.55;6.50;;;17.80;65.30;;;;;;5003714;28;20424;-78
2021/05/16 07:41:00;;;;;;;17.13;4.53;;;17.60;65.70;;;;;;5009862;28;20072;-79
2021/05/16 07:43:26;;;;;;;15.25;5.18;;;17.30;65.90;;;;;;4991109;28;20447;-77
2021/05/16 07:45:53;;;;;;;14.95;5.35;;;16.80;66.20;;;;;;5008055;28;20053;-81
2021/05/16 07:48:18;;;;;;;16.15;4.78;;;16.50;66.70;;;;;;5008911;28;20030;-76
2021/05/16 07:50:44;;;;;;;12.27;3.67;;;16.40;67.50;;;;;;4992939;28;20368;-77
2021/05/16 07:53:11;;;;;;;19.02;4.97;;;16.60;68.00;;;;;;4987385;28;20030;-77
2021/05/16 07:55:40;;;;;;;14.73;3.40;;;17.50;67.50;;;;;;4985959;28;20149;-77
2021/05/16 07:58:05;;;;;;;16.83;5.68;;;18.30;63.90;;;;;;4977913;28;20080;-77
2021/05/16 08:00:31;;;;;;;15.18;4.63;;;19.00;63.20;;;;;;4989774;28;20793;-77
2021/05/16 08:02:57;;;;;;;14.10;2.80;;;20.00;61.20;;;;;;4991084;28;20363;-80
2021/05/16 08:05:22;;;;;;;13.27;3.13;;;20.60;58.20;;;;;;4992841;28;20114;-77
2021/05/16 08:07:48;;;;;;;12.43;3.38;;;21.00;57.10;;;;;;4993166;28;20543;-79
2021/05/16 08:10:15;;;;;;;17.92;3.15;;;20.80;56.40;;;;;;4993145;28;20085;-78
2021/05/16 08:12:40;;;;;;;17.33;3.83;;;20.20;57.00;;;;;;4991175;28;20438;-77
2021/05/16 08:15:07;;;;;;;14.57;4.45;;;19.60;58.10;;;;;;5009203;28;20100;-76
2021/05/16 08:17:34;;;;;;;12.50;3.78;;;19.40;59.40;;;;;;4992724;28;20374;-78
2021/05/16 08:20:00;;;;;;;14.10;3.33;;;19.70;59.70;;;;;;5009703;28;20128;-81
2021/05/16 08:22:26;;;;;;;14.70;2.75;;;20.00;57.90;;;;;;5009820;28;20026;-78
2021/05/16 08:24:52;;;;;;;11.95;2.17;;;20.10;56.40;;;;;;4992336;28;20395;-79
2021/05/16 08:27:17;;;;;;;12.80;2.72;;;20.30;56.50;;;;;;5005944;28;20109;-76
2021/05/16 08:29:43;;;;;;;10.27;2.10;;;20.50;54.50;;;;;;5008959;28;20099;-77
2021/05/16 08:32:09;;;;;;;12.75;2.38;;;20.50;54.60;;;;;;5007524;28;20525;-76
2021/05/16 08:34:35;;;;;;;12.10;2.97;;;20.40;53.80;;;;;;4978601;28;20037;-79
2021/05/16 08:37:03;;;;;;;15.70;2.22;;;20.00;55.20;;;;;;5005458;28;20030;-81
2021/05/16 08:39:29;;;;;;;11.00;2.85;;;19.60;56.80;;;;;;5009143;28;20021;-78
2021/05/16 08:41:56;;;;;;;8.75;2.60;;;18.90;57.70;;;;;;5009262;28;20372;-78
2021/05/16 08:44:23;;;;;;;14.48;3.17;;;18.50;59.30;;;;;;5007093;28;20562;-77
2021/05/16 08:46:49;;;;;;;12.00;2.50;;;18.60;59.20;;;;;;5009994;28;20073;-77
2021/05/16 08:49:15;;;;;;;12.77;2.40;;;18.60;58.50;;;;;;5008964;28;20037;-78
2021/05/16 08:51:45;;;;;;;11.30;2.63;;;18.30;58.10;;;;;;4995598;28;20034;-78
2021/05/16 08:54:15;;;;;;;11.77;3.47;;;17.80;60.50;;;;;;4999179;28;20494;-78
2021/05/16 08:56:40;;;;;;;9.93;2.75;;;17.60;62.20;;;;;;5007705;28;20108;-78
2021/05/16 08:59:06;;;;;;;14.60;2.92;;;17.90;62.40;;;;;;4995611;28;20486;-78
2021/05/16 09:01:38;;;;;;;13.05;2.40;;;18.10;61.80;;;;;;4998975;28;20030;-78
2021/05/16 09:04:24;;;;;;;11.88;2.88;;;18.10;61.50;;;;;;4993590;28;20116;-81
2021/05/16 09:06:55;;;;;;;9.95;2.00;;;18.80;61.80;;;;;;5011815;28;20174;-78
2021/05/16 09:09:32;;;;;;;9.43;2.33;;;19.80;58.20;;;;;;5012892;28;20481;-77
2021/05/16 09:12:05;;;;;;;10.02;2.13;;;20.70;57.20;;;;;;5013119;28;20033;-79
2021/05/16 09:14:40;;;;;;;8.90;2.42;;;21.20;55.50;;;;;;5001764;28;20117;-78
2021/05/16 09:17:19;;;;;;;7.95;1.67;;;21.30;54.30;;;;;;5014103;28;20192;-81
2021/05/16 09:19:47;;;;;;;9.30;1.70;;;21.40;52.70;;;;;;5012561;28;20033;-77
2021/05/16 09:22:37;;;;;;;6.75;1.50;;;21.60;52.30;;;;;;5012502;28;20026;-77
2021/05/16 09:25:16;;;;;;;7.65;1.45;;;21.80;51.40;;;;;;5011020;28;20393;-77
2021/05/16 09:27:47;;;;;;;8.63;1.42;;;21.70;51.10;;;;;;5011555;28;20683;-78
2021/05/16 09:30:16;;;;;;;8.68;1.30;;;21.40;50.80;;;;;;5013354;28;20026;-79
2021/05/16 09:32:52;;;;;;;9.20;1.42;;;20.90;51.80;;;;;;5013103;28;20029;-77
2021/05/16 09:35:19;;;;;;;5.72;1.15;;;20.50;52.10;;;;;;5002260;28;20381;-78
2021/05/16 09:38:10;;;;;;;8.20;0.90;;;20.00;53.40;;;;;;5011547;28;20113;-78
2021/05/16 09:40:48;;;;;;;4.88;0.85;;;19.50;54.70;;;;;;5006409;28;20034;-77
2021/05/16 09:43:25;;;;;;;6.18;1.40;;;19.00;57.00;;;;;;5010481;28;20033;-77
2021/05/16 09:45:57;;;;;;;4.93;1.10;;;18.60;58.30;;;;;;5011884;28;20026;-79
2021/05/16 09:48:29;;;;;;;6.22;1.10;;;18.30;59.10;;;;;;5011542;28;20037;-78
2021/05/16 09:51:03;;;;;;;6.13;1.40;;;18.10;59.40;;;;;;5013193;28;20037;-77
2021/05/16 09:53:30;;;;;;;7.13;1.40;;;18.00;60.00;;;;;;5012247;28;20042;-78
2021/05/16 09:56:22;;;;;;;6.63;1.35;;;18.30;60.20;;;;;;5014155;28;20116;-77
2021/05/16 09:58:55;;;;;;;6.15;0.90;;;19.20;59.60;;;;;;5011712;28;20029;-76
2021/05/16 10:01:23;;;;;;;7.07;1.27;;;20.10;57.70;;;;;;5011838;28;20172;-78
2021/05/16 10:03:49;;;;;;;4.57;1.17;;;20.50;55.30;;;;;;5009487;28;20053;-79
2021/05/16 10:06:20;;;;;;;7.55;1.38;;;20.40;54.70;;;;;;5009010;28;20474;-80
2021/05/16 10:08:49;;;;;;;5.70;1.13;;;20.20;55.30;;;;;;4992307;28;20038;-78
2021/05/16 10:11:21;;;;;;;5.57;1.48;;;20.10;55.70;;;;;;4993812;28;20026;-83
2021/05/16 10:13:55;;;;;;;4.97;1.20;;;20.20;55.30;;;;;;5010336;28;20091;-76
2021/05/16 10:16:21;;;;;;;5.10;0.95;;;20.40;55.20;;;;;;5014503;28;20428;-77
2021/05/16 10:18:48;;;;;;;4.28;0.85;;;20.60;53.10;;;;;;4970320;28;20030;-76
2021/05/16 10:21:15;;;;;;;4.85;1.10;;;20.60;49.70;;;;;;5005811;28;20489;-80
2021/05/16 10:23:41;;;;;;;3.65;1.00;;;20.70;52.10;;;;;;5012061;28;20033;-79
2021/05/16 10:26:18;;;;;;;4.97;0.80;;;20.90;51.50;;;;;;5010686;28;20053;-78
2021/05/16 10:28:58;;;;;;;4.45;0.70;;;21.10;49.20;;;;;;5009686;28;20026;-78
2021/05/16 10:31:45;;;;;;;4.75;1.00;;;20.90;49.10;;;;;;5011503;28;20018;-78
2021/05/16 10:34:31;;;;;;;8.93;1.35;;;20.90;50.20;;;;;;5009955;28;20088;-77
2021/05/16 10:37:02;;;;;;;7.05;0.98;;;21.00;49.70;;;;;;5001314;28;20777;-78
2021/05/16 10:39:43;;;;;;;5.55;0.85;;;21.00;49.10;;;;;;4994566;28;20060;-79
2021/05/16 10:42:17;;;;;;;5.53;0.88;;;20.90;49.80;;;;;;5011451;28;20034;-78
2021/05/16 10:45:02;;;;;;;5.90;1.30;;;20.70;49.80;;;;;;5011800;28;20033;-77
2021/05/16 10:47:43;;;;;;;7.65;1.10;;;21.00;51.00;;;;;;5009948;28;20052;-80
2021/05/16 10:50:31;;;;;;;4.68;0.90;;;21.40;50.10;;;;;;5011377;28;20033;-77
2021/05/16 10:52:57;;;;;;;5.40;0.90;;;22.00;49.40;;;;;;5003816;28;20041;-78
2021/05/16 10:55:41;;;;;;;5.80;1.15;;;22.10;49.00;;;;;;4995646;28;20426;-81
2021/05/16 10:58:35;;;;;;;8.00;1.02;;;22.40;47.20;;;;;;5005811;28;20040;-79
2021/05/16 11:01:05;;;;;;;8.15;1.05;;;22.20;47.60;;;;;;5005346;28;20100;-79
2021/05/16 11:03:44;;;;;;;4.90;0.88;;;22.20;47.90;;;;;;5006950;28;20379;-80
2021/05/16 11:06:10;;;;;;;5.03;1.10;;;22.40;48.20;;;;;;5010508;28;20030;-80
2021/05/16 11:08:35;;;;;;;3.92;0.80;;;22.50;46.60;;;;;;5010361;28;20041;-84
2021/05/16 11:11:31;;;;;;;4.22;0.80;;;22.90;47.10;;;;;;5010835;28;20037;-80
2021/05/16 11:13:57;;;;;;;6.03;0.98;;;23.20;46.10;;;;;;5013721;28;20033;-80
2021/05/16 11:16:23;;;;;;;5.95;0.70;;;23.30;44.30;;;;;;5013060;28;20033;-80
2021/05/16 11:18:49;;;;;;;3.40;0.65;;;23.20;45.30;;;;;;5008817;28;20026;-80
2021/05/16 11:21:15;;;;;;;4.50;0.80;;;23.30;46.30;;;;;;5011327;28;20045;-81
2021/05/16 11:23:44;;;;;;;4.97;0.77;;;23.50;45.70;;;;;;4993017;28;20050;-81
2021/05/16 11:26:12;;;;;;;4.35;0.80;;;23.50;45.40;;;;;;5010138;28;20037;-80
2021/05/16 11:28:45;;;;;;;5.80;0.60;;;23.40;45.50;;;;;;5010875;28;20029;-80
2021/05/16 11:31:14;;;;;;;3.83;0.63;;;23.40;45.60;;;;;;5010434;28;20022;-81
2021/05/16 11:33:40;;;;;;;4.30;0.50;;;23.60;43.50;;;;;;5008483;28;20030;-80
2021/05/16 11:36:07;;;;;;;4.13;0.60;;;23.60;40.90;;;;;;5011563;28;20034;-80
2021/05/16 11:38:35;;;;;;;3.33;0.50;;;23.50;43.20;;;;;;5010358;28;20437;-81
2021/05/16 11:41:01;;;;;;;3.25;0.60;;;23.60;43.00;;;;;;5010011;28;20545;-80
2021/05/16 11:43:28;;;;;;;6.95;0.63;;;23.50;42.60;;;;;;4975167;28;20053;-82
2021/05/16 11:45:54;;;;;;;4.68;0.60;;;23.40;41.30;;;;;;5009853;28;20092;-81
2021/05/16 11:48:38;;;;;;;4.35;0.65;;;22.90;40.20;;;;;;5011020;28;20425;-80
2021/05/16 11:51:16;;;;;;;7.05;0.70;;;22.50;42.20;;;;;;5011637;28;20484;-78
2021/05/16 11:53:48;;;;;;;3.22;0.73;;;22.50;42.80;;;;;;5008041;28;20032;-79
2021/05/16 11:56:19;;;;;;;4.65;0.70;;;22.60;42.60;;;;;;5010170;28;20034;-79
2021/05/16 11:58:54;;;;;;;5.90;0.70;;;22.40;42.40;;;;;;5008196;28;20021;-78
2021/05/16 12:01:21;;;;;;;9.07;1.00;;;22.20;40.60;;;;;;5009818;28;20141;-79
2021/05/16 12:04:01;;;;;;;4.10;0.77;;;22.10;41.50;;;;;;5008533;28;20085;-82
2021/05/16 12:06:28;;;;;;;4.75;0.80;;;22.00;42.80;;;;;;4991983;28;20414;-81
2021/05/16 12:09:06;;;;;;;4.43;0.60;;;21.50;41.10;;;;;;5010801;28;20742;-80
2021/05/16 12:11:35;;;;;;;5.00;0.60;;;20.80;43.70;;;;;;5010861;28;20030;-81
2021/05/16 12:14:14;;;;;;;5.05;0.60;;;20.50;44.80;;;;;;4989903;28;20395;-79
2021/05/16 12:16:41;;;;;;;3.65;0.52;;;20.60;46.10;;;;;;5009752;28;20058;-79
2021/05/16 12:19:07;;;;;;;3.40;0.60;;;21.00;45.70;;;;;;5009846;28;20057;-80
2021/05/16 12:21:37;;;;;;;4.38;0.60;;;21.70;43.60;;;;;;4992898;28;20375;-79
2021/05/16 12:24:06;;;;;;;3.60;0.50;;;22.30;42.50;;;;;;4993640;28;20497;-79
2021/05/16 12:26:38;;;;;;;2.70;0.43;;;22.40;41.80;;;;;;5007699;28;20137;-79
2021/05/16 12:29:05;;;;;;;3.35;0.57;;;22.50;42.10;;;;;;5009041;28;20056;-79
2021/05/16 12:31:31;;;;;;;4.40;0.55;;;22.70;41.90;;;;;;4993892;28;20038;-79
2021/05/16 12:34:05;;;;;;;3.83;0.50;;;22.40;41.90;;;;;;5006300;28;20049;-80
2021/05/16 12:36:50;;;;;;;4.82;0.50;;;21.90;42.20;;;;;;5009338;28;20433;-80
2021/05/16 12:39:39;;;;;;;2.92;0.40;;;21.60;43.50;;;;;;5009022;28;20084;-79
2021/05/16 12:42:28;;;;;;;1.77;0.30;;;21.50;43.00;;;;;;5009846;28;20037;-80
2021/05/16 12:44:55;;;;;;;3.70;0.40;;;21.50;42.70;;;;;;4990851;28;20116;-80
2021/05/16 12:47:26;;;;;;;1.42;0.30;;;21.50;42.00;;;;;;5009526;28;20034;-80